Spring Hill Estates, Indiana
Current Conditions -  °F | °C
As of 10:53 PM on Friday 31 Oct 2014 (Local Time) from KHUF Reporting Station
Light Snow Light Snow  
Wind Chill: 26°   Ceiling: 2000
Heat Index: 36°   Visibility: 8mi
Dew Point: 31°   Wind: 17mph
Humidity: 82%   Direction: 10°N
Pressure: 30.23"   Gusts: 25mph
Location:  39.3587°N, 87.4056°W
Report Text: KHUF 010253Z 01015G22KT 8SM -SN OVC020 02/M01 A3023 RMK AO2 PK WND 36027/0218 UPB46E50SNE01B44E46B50 SLP241 P0000 60002 T00221006 53021
Loading
Personal Weather Stations






























Interactive Weather Map
Tropical Storm Tracking
New forecast layout! Learn more

10-Day Weather Forecast

Advertisements
Track Severe Weather on mobile